Silver Wind — C6FG2 — position and weather

sailwx.info

Track history (hours):
 
Tides and Currents Weather Stations Pressure Air Temp Water Temp Dewpoint Dewpoint Depression Visibility Wind Speed Wind Dir Waves Ship Positions

Silver Wind

Operator: V Ships Leisure

Last reported at 2019-Jun-16 00:29 UTC. Time now 2019-Jun-16 01:02 UTC.
Position N 54°46' E 012°46'.

Length 156 m; draft 5.7 m.

Type: Passenger vessel. MMSI: 308814000.

Date/timePositionNaut miles runAvg speedWind from/ knotsBaromVisibWave heightAir tempDewpointWater temp
2019-Jun-16 00:29N 54°46' E 012°46'510.0
2019-Jun-15 23:58N 54°42' E 012°39'511.2
2019-Jun-15 23:30N 54°40' E 012°32'611.1
2019-Jun-15 23:00N 54°37' E 012°23'1110.7
2019-Jun-15 21:59N 54°27' E 012°15'611.5
2019-Jun-15 21:30N 54°24' E 012°07'611.3
2019-Jun-15 20:58N 54°24' E 011°56'611.9
2019-Jun-15 20:26N 54°20' E 011°47'1511.3
2019-Jun-15 19:05N 54°12' E 011°25'411.5
2019-Jun-15 18:47N 54°11' E 011°20'311.8
2019-Jun-15 18:30N 54°09' E 011°15'9 0.6
2019-Jun-15 04:24N 54°04' E 011°03'410.7
2019-Jun-15 04:00N 54°06' E 011°09'510.2
2019-Jun-15 03:30N 54°10' E 011°15'5 9.5
2019-Jun-15 03:00N 54°14' E 011°19'510.4
2019-Jun-15 02:30N 54°19' E 011°22'510.4
2019-Jun-15 02:00N 54°24' E 011°26'510.0
2019-Jun-15 01:30N 54°29' E 011°26'4 8.9
2019-Jun-15 01:00N 54°32' E 011°21'510.5
2019-Jun-15 00:30N 54°34' E 011°13'510.0
2019-Jun-15 00:00N 54°35' E 011°04'510.0
2019-Jun-14 23:30N 54°34' E 010°56'510.2
2019-Jun-14 23:00N 54°34' E 010°47'510.0
2019-Jun-14 22:30N 54°34' E 010°38'510.2
2019-Jun-14 22:00N 54°32' E 010°30'510.4
2019-Jun-14 21:30N 54°30' E 010°22'611.6
2019-Jun-14 21:00N 54°26' E 010°14'510.7
2019-Jun-14 20:30N 54°22' E 010°09'1 1.3
2019-Jun-14 20:00N 54°22' E 010°08'4 7.4
2019-Jun-14 19:30N 54°22' E 010°01'4 7.7
2019-Jun-14 19:00N 54°21' E 009°55'3 6.1
2019-Jun-14 18:30N 54°22' E 009°50'4 8.1
2019-Jun-14 18:00N 54°20' E 009°44'4 7.1
2019-Jun-14 17:30N 54°17' E 009°40'2 3.8
2019-Jun-14 17:00N 54°16' E 009°38'1 2.6
2019-Jun-14 16:30N 54°15' E 009°37'4 7.0
2019-Jun-14 16:00N 54°12' E 009°33'4 8.2
2019-Jun-14 15:30N 54°10' E 009°27'3 6.3
2019-Jun-14 15:00N 54°09' E 009°22'2 4.1
2019-Jun-14 14:30N 54°07' E 009°20'3 6.1
2019-Jun-14 14:00N 54°04' E 009°19'3 6.1
2019-Jun-14 13:30N 54°01' E 009°18'4 7.5
2019-Jun-14 13:00N 53°58' E 009°15'3 5.1
2019-Jun-14 12:30N 53°56' E 009°13'3 4.6
2019-Jun-14 11:56N 53°54' E 009°09'1 1.3
2019-Jun-14 11:30N 53°54' E 009°09'0 0.6
2019-Jun-14 11:00N 53°53' E 009°08'3 6.0
2019-Jun-14 10:28N 53°52' E 009°03'611.6
2019-Jun-14 09:57N 53°50' E 008°53'613.6
2019-Jun-14 09:30N 53°52' E 008°44'815.3
2019-Jun-14 09:01N 53°58' E 008°35'916.7
2019-Jun-14 08:30N 53°59' E 008°21'713.1
2019-Jun-14 07:59N 53°59' E 008°09'610.7
2019-Jun-14 07:27N 53°58' E 007°60'510.3
2019-Jun-14 07:00N 53°57' E 007°52'510.3
2019-Jun-14 06:30N 53°56' E 007°44'510.6
2019-Jun-14 06:00N 53°55' E 007°35'611.1
2019-Jun-14 05:30N 53°54' E 007°26'611.2
2019-Jun-14 05:00N 53°52' E 007°16'8211.5
2019-Jun-13 21:51N 53°30' E 005°03'411.0
2019-Jun-13 21:29N 53°29' E 004°57'1810.5
2019-Jun-13 19:48N 53°16' E 004°36'411.7
2019-Jun-13 19:30N 53°13' E 004°33'612.2
2019-Jun-13 19:00N 53°08' E 004°28'611.5
2019-Jun-13 18:31N 53°03' E 004°23'611.4
2019-Jun-13 18:01N 52°58' E 004°19'611.8
2019-Jun-13 17:30N 52°52' E 004°16'611.6
2019-Jun-13 17:01N 52°47' E 004°11'711.8
2019-Jun-13 16:25N 52°43' E 004°02'511.9
2019-Jun-13 16:00N 52°40' E 003°55'611.7
2019-Jun-13 15:30N 52°37' E 003°47'611.0
2019-Jun-13 15:00N 52°33' E 003°40'611.4
2019-Jun-13 14:29N 52°29' E 003°34'611.6
2019-Jun-13 13:58N 52°24' E 003°28'511.6
2019-Jun-13 13:30N 52°20' E 003°22'611.4
2019-Jun-13 12:56N 52°15' E 003°15'611.6
2019-Jun-13 12:25N 52°10' E 003°09'2312.0
2019-Jun-13 10:30N 51°53' E 002°45'2111.9
2019-Jun-13 08:46N 51°37' E 002°24'312.1
2019-Jun-13 08:30N 51°35' E 002°20'611.8
2019-Jun-13 08:00N 51°30' E 002°14'611.8
2019-Jun-13 07:30N 51°26' E 002°08'611.9
2019-Jun-13 07:00N 51°20' E 002°06'510.9
2019-Jun-13 06:30N 51°14' E 002°06'611.8
2019-Jun-13 06:00N 51°11' E 001°58'612.1
2019-Jun-13 05:30N 51°08' E 001°50'612.0
2019-Jun-13 05:00N 51°04' E 001°42'611.7
2019-Jun-13 04:30N 51°00' E 001°35'612.2
2019-Jun-13 04:00N 50°56' E 001°28'612.2
2019-Jun-13 03:30N 50°50' E 001°25'1711.7
2019-Jun-13 02:03N 50°36' E 001°11'1211.7
2019-Jun-13 01:03N 50°28' E 000°58'912.3
2019-Jun-13 00:19N 50°25' E 000°45'2212.1
2019-Jun-12 22:30N 50°19' E 000°11'612.0
2019-Jun-12 22:00N 50°17' E 000°03'911.3
2019-Jun-12 21:14N 50°13' W 000°09'311.1
2019-Jun-12 21:00N 50°11' W 000°12'1011.0
2019-Jun-12 20:05N 50°01' W 000°15'112.7
2019-Jun-12 20:00N 50°00' W 000°15'611.6
2019-Jun-12 19:30N 49°54' W 000°15'611.7
2019-Jun-12 19:00N 49°49' W 000°15'611.6
2019-Jun-12 18:30N 49°43' W 000°15'611.8
2019-Jun-12 18:00N 49°37' W 000°15'611.6
2019-Jun-12 17:30N 49°32' W 000°11'611.7
2019-Jun-12 17:00N 49°29' W 000°03'611.7
2019-Jun-12 16:31N 49°26' E 000°05'611.9
2019-Jun-12 16:00N 49°26' E 000°14'0 0.0
2019-Jun-12 15:31N 49°26' E 000°14'0 0.0
2019-Jun-12 14:59N 49°26' E 000°14'0 0.0
2019-Jun-12 14:29N 49°26' E 000°14'0 0.0
2019-Jun-12 13:59N 49°26' E 000°14'0 0.0
2019-Jun-12 13:29N 49°26' E 000°14'0 0.0
2019-Jun-12 12:59N 49°26' E 000°14'0 0.0
2019-Jun-12 12:29N 49°26' E 000°14'0 0.0
2019-Jun-12 11:59N 49°26' E 000°14'0 0.0
2019-Jun-12 11:29N 49°26' E 000°14'0 0.0
2019-Jun-12 10:59N 49°26' E 000°14'0 0.0
2019-Jun-12 10:29N 49°26' E 000°14'0 0.0
2019-Jun-12 09:59N 49°26' E 000°14'0 0.0
2019-Jun-12 09:29N 49°26' E 000°14'0 0.0
2019-Jun-12 08:59N 49°26' E 000°14'0 0.0
2019-Jun-12 08:29N 49°26' E 000°14'0 0.0
2019-Jun-12 07:59N 49°26' E 000°14'0 0.0
2019-Jun-12 07:29N 49°26' E 000°14'0 0.0
2019-Jun-12 06:59N 49°26' E 000°14'0 0.0
2019-Jun-12 06:29N 49°26' E 000°14'0 0.0
2019-Jun-12 05:59N 49°26' E 000°14'0 0.0
2019-Jun-12 05:29N 49°26' E 000°14'0 0.0
2019-Jun-12 04:59N 49°26' E 000°14'0 0.0
2019-Jun-12 04:29N 49°26' E 000°14'0 0.0
2019-Jun-12 03:59N 49°26' E 000°14'0 0.0
2019-Jun-12 03:29N 49°26' E 000°14'0 0.0
2019-Jun-12 02:59N 49°26' E 000°14'0 0.0
2019-Jun-12 02:29N 49°26' E 000°14'0 0.0
2019-Jun-12 01:29N 49°26' E 000°14'0 0.0
2019-Jun-12 00:59N 49°26' E 000°14'0 0.0
2019-Jun-12 00:29N 49°26' E 000°14'0 0.0
2019-Jun-11 23:59N 49°26' E 000°14'0 0.0
2019-Jun-11 23:29N 49°26' E 000°14'0 0.0
2019-Jun-11 22:59N 49°26' E 000°14'0 0.0
2019-Jun-11 22:29N 49°26' E 000°14'0 0.0
2019-Jun-11 21:59N 49°26' E 000°14'0 0.0
2019-Jun-11 21:29N 49°26' E 000°14'0 0.0
2019-Jun-11 20:59N 49°26' E 000°14'0 0.0
2019-Jun-11 20:29N 49°26' E 000°14'0 0.0
2019-Jun-11 19:59N 49°26' E 000°14'0 0.0
2019-Jun-11 19:29N 49°26' E 000°14'0 0.0
2019-Jun-11 18:59N 49°26' E 000°14'0 0.0
2019-Jun-11 18:29N 49°26' E 000°14'0 0.0
2019-Jun-11 17:59N 49°26' E 000°14'0 0.0
2019-Jun-11 17:29N 49°26' E 000°14'0 0.0
2019-Jun-11 16:59N 49°26' E 000°14'0 0.0
2019-Jun-11 16:29N 49°26' E 000°14'0 0.0
2019-Jun-11 15:59N 49°26' E 000°14'0 0.0
2019-Jun-11 15:29N 49°26' E 000°14'0 0.0
2019-Jun-11 14:59N 49°26' E 000°14'0 0.0
2019-Jun-11 14:29N 49°26' E 000°14'0 0.0
2019-Jun-11 13:59N 49°26' E 000°14'0 0.0
2019-Jun-11 13:29N 49°26' E 000°14'0 0.0
2019-Jun-11 12:59N 49°26' E 000°14'0 0.0
2019-Jun-11 12:29N 49°26' E 000°14'0 0.0
2019-Jun-11 11:59N 49°26' E 000°14'0 0.0
2019-Jun-11 11:29N 49°26' E 000°14'0 0.0
2019-Jun-11 10:59N 49°26' E 000°14'0 0.0
2019-Jun-11 10:29N 49°26' E 000°14'0 0.0
2019-Jun-11 09:59N 49°26' E 000°14'0 0.0
2019-Jun-11 09:29N 49°26' E 000°14'0 0.0
2019-Jun-11 08:59N 49°26' E 000°14'0 0.0
2019-Jun-11 08:29N 49°26' E 000°14'0 0.0
2019-Jun-11 07:59N 49°26' E 000°14'0 0.0
2019-Jun-11 07:29N 49°26' E 000°14'0 0.0
2019-Jun-11 06:59N 49°26' E 000°14'0 0.0
2019-Jun-11 06:29N 49°26' E 000°14'0 0.0
2019-Jun-11 05:59N 49°26' E 000°14'0 0.0
2019-Jun-11 05:29N 49°26' E 000°14'0 0.0
2019-Jun-11 05:00N 49°26' E 000°14'2 4.7
2019-Jun-11 04:30N 49°26' E 000°11'815.7
2019-Jun-11 04:00N 49°28' W 000°01'510.8
2019-Jun-11 03:31N 49°30' W 000°09'5 9.3
2019-Jun-11 03:01N 49°34' W 000°13'5 9.5
2019-Jun-11 02:31N 49°38' W 000°16'4 8.9
2019-Jun-11 02:01N 49°42' W 000°20'4 8.8
2019-Jun-11 01:31N 49°46' W 000°22'4 8.2
2019-Jun-11 01:00N 49°50' W 000°22'4 8.3
2019-Jun-11 00:30N 49°54' W 000°21'4 8.5
2019-Jun-11 00:00N 49°58' W 000°21'4 8.5
2019-Jun-10 23:30N 50°03' W 000°21'10 9.3
2019-Jun-10 22:29N 50°12' W 000°20'913.6
2019-Jun-10 21:47N 50°21' W 000°15'1213.6
2019-Jun-10 20:55N 50°30' W 000°03'3010.3
2019-Jun-10 18:04N 50°40' E 000°41'110.6
2019-Jun-10 18:00N 50°40' E 000°41'510.6
2019-Jun-10 17:30N 50°44' E 000°48'510.5
2019-Jun-10 17:00N 50°47' E 000°55'610.4
2019-Jun-10 16:28N 50°50' E 001°02'510.4
2019-Jun-10 16:00N 50°53' E 001°08'510.5
2019-Jun-10 15:30N 50°57' E 001°14'510.4
2019-Jun-10 15:00N 51°00' E 001°20'5 9.8
2019-Jun-10 14:30N 51°04' E 001°26'5 9.6
2019-Jun-10 14:00N 51°06' E 001°32'510.3
2019-Jun-10 13:30N 51°10' E 001°38'5 9.2
2019-Jun-10 13:01N 51°14' E 001°39'510.6
2019-Jun-10 12:31N 51°19' E 001°36'510.5
2019-Jun-10 12:01N 51°24' E 001°32'5 9.3
2019-Jun-10 11:31N 51°27' E 001°27'611.6
2019-Jun-10 11:01N 51°29' E 001°18'714.1
2019-Jun-10 10:30N 51°29' E 001°06'714.7
2019-Jun-10 10:00N 51°29' E 000°55'815.4
2019-Jun-10 09:30N 51°30' E 000°42'815.4
2019-Jun-10 09:01N 51°30' E 000°30'511.0
2019-Jun-10 08:31N 51°27' E 000°23'4 8.9
2019-Jun-10 08:01N 51°28' E 000°16'611.5
2019-Jun-10 07:30N 51°31' E 000°08'5 9.6
2019-Jun-10 07:00N 51°30' E 000°00'2 4.0
2019-Jun-10 06:30N 51°30' W 000°03'1 2.5
2019-Jun-10 06:01N 51°30' W 000°05'0 0.0
2019-Jun-10 05:31N 51°30' W 000°05'0 0.0
2019-Jun-10 04:58N 51°30' W 000°05'0 0.0
2019-Jun-10 04:28N 51°30' W 000°05'0 0.0
2019-Jun-10 03:58N 51°30' W 000°05'0 0.0
2019-Jun-10 03:28N 51°30' W 000°05'0 0.0
2019-Jun-10 02:58N 51°30' W 000°05'0 0.0
2019-Jun-10 02:26N 51°30' W 000°05'0 0.0
2019-Jun-10 01:50N 51°30' W 000°05'0 0.0
2019-Jun-10 01:20N 51°30' W 000°05'0 0.0
2019-Jun-10 00:56N 51°30' W 000°05'0 0.0
2019-Jun-10 00:26N 51°30' W 000°05'0 0.0
2019-Jun-09 23:50N 51°30' W 000°05'0 0.0
2019-Jun-09 23:20N 51°30' W 000°05'0 0.0
2019-Jun-09 22:56N 51°30' W 000°05'0 0.0
2019-Jun-09 22:14N 51°30' W 000°05'0 0.0
2019-Jun-09 21:58N 51°30' W 000°05'0 0.0
2019-Jun-09 21:26N 51°30' W 000°05'0 0.0
2019-Jun-09 20:46N 51°30' W 000°05'0 0.0
2019-Jun-09 20:22N 51°30' W 000°05'0 0.0
2019-Jun-09 19:56N 51°30' W 000°05'0 0.0
2019-Jun-09 19:26N 51°30' W 000°05'0 0.0
2019-Jun-09 18:58N 51°30' W 000°05'0 0.0
2019-Jun-09 18:29N 51°30' W 000°05'0 0.0
2019-Jun-09 17:58N 51°30' W 000°05'0 0.0
2019-Jun-09 17:28N 51°30' W 000°05'0 0.0
2019-Jun-09 16:58N 51°30' W 000°05'0 0.0
2019-Jun-09 16:14N 51°30' W 000°05'0 0.0
2019-Jun-09 15:23N 51°30' W 000°05'0 0.0
2019-Jun-09 14:52N 51°30' W 000°05'0 0.0
2019-Jun-09 14:28N 51°30' W 000°05'0 0.0
2019-Jun-09 13:59N 51°30' W 000°05'0 0.0
2019-Jun-09 13:20N 51°30' W 000°05'0 0.0
2019-Jun-09 12:40N 51°30' W 000°05'0 0.0
2019-Jun-09 12:29N 51°30' W 000°05'0 0.0
2019-Jun-09 11:49N 51°30' W 000°05'0 0.0
2019-Jun-09 11:25N 51°30' W 000°05'0 0.0
2019-Jun-09 10:59N 51°30' W 000°05'0 0.0
2019-Jun-09 10:25N 51°30' W 000°05'0 0.0
2019-Jun-09 09:56N 51°30' W 000°05'0 0.0
2019-Jun-09 09:30N 51°30' W 000°05'0 0.0
2019-Jun-09 09:00N 51°30' W 000°05'0 0.0
2019-Jun-09 08:30N 51°30' W 000°05'0 0.0
2019-Jun-09 08:00N 51°30' W 000°05'0 0.0
2019-Jun-09 07:27N 51°30' W 000°05'0 0.0
2019-Jun-09 06:58N 51°30' W 000°05'1 3.0
2019-Jun-09 06:30N 51°30' W 000°03'2 4.5
2019-Jun-09 06:00N 51°30' E 000°01'5 9.2
2019-Jun-09 05:30N 51°31' E 000°08'611.5
2019-Jun-09 05:01N 51°28' E 000°16'8 7.9
2019-Jun-09 04:01N 51°30' E 000°28'5 9.6
2019-Jun-09 03:30N 51°30' E 000°36'713.2
2019-Jun-09 03:01N 51°29' E 000°46'714.5
2019-Jun-09 02:31N 51°29' E 000°58'714.8
2019-Jun-09 02:01N 51°29' E 001°10'714.7
2019-Jun-09 01:31N 51°29' E 001°22'713.2
2019-Jun-09 01:00N 51°27' E 001°32'4 7.1
2019-Jun-09 00:30N 51°29' E 001°37'510.5
2019-Jun-09 00:00N 51°33' E 001°42'510.7
2019-Jun-08 23:30N 51°38' E 001°46'510.7
2019-Jun-08 23:00N 51°43' E 001°45'611.3
2019-Jun-08 22:30N 51°49' E 001°45'611.3
2019-Jun-08 22:00N 51°55' E 001°44'510.9
2019-Jun-08 21:30N 51°60' E 001°48'510.7
2019-Jun-08 21:00N 52°04' E 001°53'611.1
2019-Jun-08 20:30N 52°09' E 001°58'611.3
2019-Jun-08 20:00N 52°14' E 002°01'611.6
2019-Jun-08 19:30N 52°19' E 002°04'611.6
2019-Jun-08 19:00N 52°25' E 002°06'611.6
2019-Jun-08 18:30N 52°31' E 002°09'611.5
2019-Jun-08 18:00N 52°36' E 002°11'611.4
2019-Jun-08 17:30N 52°42' E 002°13'611.1
2019-Jun-08 17:00N 52°47' E 002°10'611.3
2019-Jun-08 16:30N 52°51' E 002°04'611.2
2019-Jun-08 16:00N 52°55' E 001°57'611.5
2019-Jun-08 15:30N 52°58' E 001°49'611.4
2019-Jun-08 15:00N 53°01' E 001°41'1311.6
2019-Jun-08 13:54N 53°13' E 001°32'511.9
2019-Jun-08 13:30N 53°17' E 001°28'1211.9
2019-Jun-08 12:31N 53°28' E 001°19'011.2
2019-Jun-08 12:30N 53°28' E 001°19'612.0
2019-Jun-08 12:00N 53°33' E 001°16'611.8
2019-Jun-08 11:30N 53°37' E 001°09'611.8
2019-Jun-08 11:00N 53°42' E 001°02'611.9
2019-Jun-08 10:31N 53°46' E 000°54'1511.8
2019-Jun-08 09:13N 53°56' E 000°35'311.7
2019-Jun-08 09:00N 53°58' E 000°33'611.9
2019-Jun-08 08:30N 54°03' E 000°27'612.0
2019-Jun-08 08:00N 54°08' E 000°21'612.2
2019-Jun-08 07:30N 54°13' E 000°15'612.1
2019-Jun-08 07:00N 54°18' E 000°10'6612.1
2019-Jun-08 01:32N 55°13' W 000°55'112.1
2019-Jun-08 01:28N 55°13' W 000°56'612.2
2019-Jun-08 01:00N 55°18' W 001°01'2112.3
2019-Jun-07 23:15N 55°36' W 001°23'312.2
2019-Jun-07 23:00N 55°38' W 001°26'612.2
2019-Jun-07 22:30N 55°43' W 001°32'612.1
2019-Jun-07 22:00N 55°47' W 001°40'611.7
2019-Jun-07 21:30N 55°51' W 001°47'611.9
2019-Jun-07 21:00N 55°55' W 001°55'612.3
2019-Jun-07 20:30N 55°59' W 002°03'1612.2
2019-Jun-07 19:12N 56°07' W 002°29'511.8
2019-Jun-07 18:48N 56°08' W 002°37'412.5
2019-Jun-07 18:30N 56°08' W 002°44'612.2
2019-Jun-07 18:00N 56°05' W 002°53'612.2
2019-Jun-07 17:30N 56°02' W 003°03'5 9.9
2019-Jun-07 17:00N 56°00' W 003°11'1 2.4
2019-Jun-07 16:30N 55°59' W 003°11'0 0.8
2019-Jun-07 15:58N 55°59' W 003°11'0 0.0
2019-Jun-07 15:28N 55°59' W 003°11'0 0.0
2019-Jun-07 14:58N 55°59' W 003°11'0 0.0
2019-Jun-07 14:28N 55°59' W 003°11'0 0.0
2019-Jun-07 13:58N 55°59' W 003°11'0 0.0
2019-Jun-07 13:28N 55°59' W 003°11'0 0.0
2019-Jun-07 12:58N 55°59' W 003°11'0 0.0
2019-Jun-07 12:28N 55°59' W 003°11'0 0.0
2019-Jun-07 11:58N 55°59' W 003°11'0 0.0
2019-Jun-07 11:25N 55°59' W 003°11'0 0.0
2019-Jun-07 10:58N 55°59' W 003°11'0 0.0
2019-Jun-07 10:28N 55°59' W 003°11'0 0.0
2019-Jun-07 09:58N 55°59' W 003°11'0 0.0
2019-Jun-07 09:28N 55°59' W 003°11'0 0.0
2019-Jun-07 08:58N 55°59' W 003°11'0 0.0
2019-Jun-07 08:28N 55°59' W 003°11'0 0.0
2019-Jun-07 07:58N 55°59' W 003°11'0 0.0
2019-Jun-07 07:28N 55°59' W 003°11'0 0.0
2019-Jun-07 06:58N 55°59' W 003°11'0 0.0
2019-Jun-07 06:28N 55°59' W 003°11'0 0.0
2019-Jun-07 06:00N 55°59' W 003°11'0 0.0
2019-Jun-07 05:30N 55°59' W 003°11'0 0.0
2019-Jun-07 05:00N 55°59' W 003°11'0 0.0
2019-Jun-07 04:30N 55°59' W 003°11'0 0.0
2019-Jun-07 04:00N 55°59' W 003°11'0 0.8
2019-Jun-07 03:30N 55°59' W 003°11'1 2.0
2019-Jun-07 03:00N 56°00' W 003°12'2 4.0
2019-Jun-07 02:30N 56°01' W 003°08'510.9
2019-Jun-07 02:00N 56°03' W 002°60'612.2
2019-Jun-07 01:30N 56°06' W 002°50'612.7
2019-Jun-07 01:00N 56°08' W 002°39'713.3
2019-Jun-07 00:30N 56°10' W 002°28'714.4
2019-Jun-07 00:00N 56°15' W 002°19'714.4
2019-Jun-06 23:30N 56°20' W 002°11'714.3
2019-Jun-06 23:00N 56°27' W 002°05'714.2
2019-Jun-06 22:30N 56°33' W 001°57'2314.4
2019-Jun-06 20:54N 56°51' W 001°31'1814.5
2019-Jun-06 19:38N 57°05' W 001°11'214.1
2019-Jun-06 19:28N 57°07' W 001°08'814.4
2019-Jun-06 18:56N 57°13' W 000°60'16015.1
2019-Jun-06 08:19N 59°21' E 002°05'515.5
2019-Jun-06 07:59N 59°25' E 002°11'815.5
2019-Jun-06 07:29N 59°31' E 002°21'715.3
2019-Jun-06 07:00N 59°37' E 002°30'815.6
2019-Jun-06 06:31N 59°43' E 002°40'815.5
2019-Jun-06 06:00N 59°49' E 002°50'815.5
2019-Jun-06 05:30N 59°55' E 002°59'815.4
2019-Jun-06 05:00N 60°00' E 003°10'815.4
2019-Jun-06 04:30N 60°07' E 003°20'815.5
2019-Jun-06 04:00N 60°12' E 003°30'815.6
2019-Jun-06 03:30N 60°18' E 003°40'815.7
2019-Jun-06 03:00N 60°24' E 003°50'815.4
2019-Jun-06 02:29N 60°31' E 003°60'715.5
2019-Jun-06 02:00N 60°36' E 004°09'815.9
2019-Jun-06 01:30N 60°42' E 004°20'816.1
2019-Jun-06 00:59N 60°49' E 004°31'713.9
2019-Jun-06 00:29N 60°54' E 004°40'  
Track history (hours):
 
Tides and Currents Weather Stations Pressure Air Temp Water Temp Dewpoint Dewpoint Depression Visibility Wind Speed Wind Dir Waves Ship Positions

Silver Wind

Operator: V Ships Leisure

Last reported at 2019-Jun-16 00:29 UTC. Time now 2019-Jun-16 01:02 UTC.
Position N 54°46' E 012°46'.

Length 156 m; draft 5.7 m.

Type: Passenger vessel. MMSI: 308814000.

Date/timePositionNaut miles runAvg speedWind from/ knotsBaromVisibWave heightAir tempDewpointWater temp
2019-Jun-16 00:29N 54°46' E 012°46'510.0
2019-Jun-15 23:58N 54°42' E 012°39'511.2
2019-Jun-15 23:30N 54°40' E 012°32'611.1
2019-Jun-15 23:00N 54°37' E 012°23'1110.7
2019-Jun-15 21:59N 54°27' E 012°15'611.5
2019-Jun-15 21:30N 54°24' E 012°07'611.3
2019-Jun-15 20:58N 54°24' E 011°56'611.9
2019-Jun-15 20:26N 54°20' E 011°47'1511.3
2019-Jun-15 19:05N 54°12' E 011°25'411.5
2019-Jun-15 18:47N 54°11' E 011°20'311.8
2019-Jun-15 18:30N 54°09' E 011°15'9 0.6
2019-Jun-15 04:24N 54°04' E 011°03'410.7
2019-Jun-15 04:00N 54°06' E 011°09'510.2
2019-Jun-15 03:30N 54°10' E 011°15'5 9.5
2019-Jun-15 03:00N 54°14' E 011°19'510.4
2019-Jun-15 02:30N 54°19' E 011°22'510.4
2019-Jun-15 02:00N 54°24' E 011°26'510.0
2019-Jun-15 01:30N 54°29' E 011°26'4 8.9
2019-Jun-15 01:00N 54°32' E 011°21'510.5
2019-Jun-15 00:30N 54°34' E 011°13'510.0
2019-Jun-15 00:00N 54°35' E 011°04'510.0
2019-Jun-14 23:30N 54°34' E 010°56'510.2
2019-Jun-14 23:00N 54°34' E 010°47'510.0
2019-Jun-14 22:30N 54°34' E 010°38'510.2
2019-Jun-14 22:00N 54°32' E 010°30'510.4
2019-Jun-14 21:30N 54°30' E 010°22'611.6
2019-Jun-14 21:00N 54°26' E 010°14'510.7
2019-Jun-14 20:30N 54°22' E 010°09'1 1.3
2019-Jun-14 20:00N 54°22' E 010°08'4 7.4
2019-Jun-14 19:30N 54°22' E 010°01'4 7.7
2019-Jun-14 19:00N 54°21' E 009°55'3 6.1
2019-Jun-14 18:30N 54°22' E 009°50'4 8.1
2019-Jun-14 18:00N 54°20' E 009°44'4 7.1
2019-Jun-14 17:30N 54°17' E 009°40'2 3.8
2019-Jun-14 17:00N 54°16' E 009°38'1 2.6
2019-Jun-14 16:30N 54°15' E 009°37'4 7.0
2019-Jun-14 16:00N 54°12' E 009°33'4 8.2
2019-Jun-14 15:30N 54°10' E 009°27'3 6.3
2019-Jun-14 15:00N 54°09' E 009°22'2 4.1
2019-Jun-14 14:30N 54°07' E 009°20'3 6.1
2019-Jun-14 14:00N 54°04' E 009°19'3 6.1
2019-Jun-14 13:30N 54°01' E 009°18'4 7.5
2019-Jun-14 13:00N 53°58' E 009°15'3 5.1
2019-Jun-14 12:30N 53°56' E 009°13'3 4.6
2019-Jun-14 11:56N 53°54' E 009°09'1 1.3
2019-Jun-14 11:30N 53°54' E 009°09'0 0.6
2019-Jun-14 11:00N 53°53' E 009°08'3 6.0
2019-Jun-14 10:28N 53°52' E 009°03'611.6
2019-Jun-14 09:57N 53°50' E 008°53'613.6
2019-Jun-14 09:30N 53°52' E 008°44'815.3
2019-Jun-14 09:01N 53°58' E 008°35'916.7
2019-Jun-14 08:30N 53°59' E 008°21'713.1
2019-Jun-14 07:59N 53°59' E 008°09'610.7
2019-Jun-14 07:27N 53°58' E 007°60'510.3
2019-Jun-14 07:00N 53°57' E 007°52'510.3
2019-Jun-14 06:30N 53°56' E 007°44'510.6
2019-Jun-14 06:00N 53°55' E 007°35'611.1
2019-Jun-14 05:30N 53°54' E 007°26'611.2
2019-Jun-14 05:00N 53°52' E 007°16'8211.5
2019-Jun-13 21:51N 53°30' E 005°03'411.0
2019-Jun-13 21:29N 53°29' E 004°57'1810.5
2019-Jun-13 19:48N 53°16' E 004°36'411.7
2019-Jun-13 19:30N 53°13' E 004°33'612.2
2019-Jun-13 19:00N 53°08' E 004°28'611.5
2019-Jun-13 18:31N 53°03' E 004°23'611.4
2019-Jun-13 18:01N 52°58' E 004°19'611.8
2019-Jun-13 17:30N 52°52' E 004°16'611.6
2019-Jun-13 17:01N 52°47' E 004°11'711.8
2019-Jun-13 16:25N 52°43' E 004°02'511.9
2019-Jun-13 16:00N 52°40' E 003°55'611.7
2019-Jun-13 15:30N 52°37' E 003°47'611.0
2019-Jun-13 15:00N 52°33' E 003°40'611.4
2019-Jun-13 14:29N 52°29' E 003°34'611.6
2019-Jun-13 13:58N 52°24' E 003°28'511.6
2019-Jun-13 13:30N 52°20' E 003°22'611.4
2019-Jun-13 12:56N 52°15' E 003°15'611.6
2019-Jun-13 12:25N 52°10' E 003°09'2312.0
2019-Jun-13 10:30N 51°53' E 002°45'2111.9
2019-Jun-13 08:46N 51°37' E 002°24'312.1
2019-Jun-13 08:30N 51°35' E 002°20'611.8
2019-Jun-13 08:00N 51°30' E 002°14'611.8
2019-Jun-13 07:30N 51°26' E 002°08'611.9
2019-Jun-13 07:00N 51°20' E 002°06'510.9
2019-Jun-13 06:30N 51°14' E 002°06'611.8
2019-Jun-13 06:00N 51°11' E 001°58'612.1
2019-Jun-13 05:30N 51°08' E 001°50'612.0
2019-Jun-13 05:00N 51°04' E 001°42'611.7
2019-Jun-13 04:30N 51°00' E 001°35'612.2
2019-Jun-13 04:00N 50°56' E 001°28'612.2
2019-Jun-13 03:30N 50°50' E 001°25'1711.7
2019-Jun-13 02:03N 50°36' E 001°11'1211.7
2019-Jun-13 01:03N 50°28' E 000°58'912.3
2019-Jun-13 00:19N 50°25' E 000°45'2212.1
2019-Jun-12 22:30N 50°19' E 000°11'612.0
2019-Jun-12 22:00N 50°17' E 000°03'911.3
2019-Jun-12 21:14N 50°13' W 000°09'311.1
2019-Jun-12 21:00N 50°11' W 000°12'1011.0
2019-Jun-12 20:05N 50°01' W 000°15'112.7
2019-Jun-12 20:00N 50°00' W 000°15'611.6
2019-Jun-12 19:30N 49°54' W 000°15'611.7
2019-Jun-12 19:00N 49°49' W 000°15'611.6
2019-Jun-12 18:30N 49°43' W 000°15'611.8
2019-Jun-12 18:00N 49°37' W 000°15'611.6
2019-Jun-12 17:30N 49°32' W 000°11'611.7
2019-Jun-12 17:00N 49°29' W 000°03'611.7
2019-Jun-12 16:31N 49°26' E 000°05'611.9
2019-Jun-12 16:00N 49°26' E 000°14'0 0.0
2019-Jun-12 15:31N 49°26' E 000°14'0 0.0
2019-Jun-12 14:59N 49°26' E 000°14'0 0.0
2019-Jun-12 14:29N 49°26' E 000°14'0 0.0
2019-Jun-12 13:59N 49°26' E 000°14'0 0.0
2019-Jun-12 13:29N 49°26' E 000°14'0 0.0
2019-Jun-12 12:59N 49°26' E 000°14'0 0.0
2019-Jun-12 12:29N 49°26' E 000°14'0 0.0
2019-Jun-12 11:59N 49°26' E 000°14'0 0.0
2019-Jun-12 11:29N 49°26' E 000°14'0 0.0
2019-Jun-12 10:59N 49°26' E 000°14'0 0.0
2019-Jun-12 10:29N 49°26' E 000°14'0 0.0
2019-Jun-12 09:59N 49°26' E 000°14'0 0.0
2019-Jun-12 09:29N 49°26' E 000°14'0 0.0
2019-Jun-12 08:59N 49°26' E 000°14'0 0.0
2019-Jun-12 08:29N 49°26' E 000°14'0 0.0
2019-Jun-12 07:59N 49°26' E 000°14'0 0.0
2019-Jun-12 07:29N 49°26' E 000°14'0 0.0
2019-Jun-12 06:59N 49°26' E 000°14'0 0.0
2019-Jun-12 06:29N 49°26' E 000°14'0 0.0
2019-Jun-12 05:59N 49°26' E 000°14'0 0.0
2019-Jun-12 05:29N 49°26' E 000°14'0 0.0
2019-Jun-12 04:59N 49°26' E 000°14'0 0.0
2019-Jun-12 04:29N 49°26' E 000°14'0 0.0
2019-Jun-12 03:59N 49°26' E 000°14'0 0.0
2019-Jun-12 03:29N 49°26' E 000°14'0 0.0
2019-Jun-12 02:59N 49°26' E 000°14'0 0.0
2019-Jun-12 02:29N 49°26' E 000°14'0 0.0
2019-Jun-12 01:29N 49°26' E 000°14'0 0.0
2019-Jun-12 00:59N 49°26' E 000°14'0 0.0
2019-Jun-12 00:29N 49°26' E 000°14'0 0.0
2019-Jun-11 23:59N 49°26' E 000°14'0 0.0
2019-Jun-11 23:29N 49°26' E 000°14'0 0.0
2019-Jun-11 22:59N 49°26' E 000°14'0 0.0
2019-Jun-11 22:29N 49°26' E 000°14'0 0.0
2019-Jun-11 21:59N 49°26' E 000°14'0 0.0
2019-Jun-11 21:29N 49°26' E 000°14'0 0.0
2019-Jun-11 20:59N 49°26' E 000°14'0 0.0
2019-Jun-11 20:29N 49°26' E 000°14'0 0.0
2019-Jun-11 19:59N 49°26' E 000°14'0 0.0
2019-Jun-11 19:29N 49°26' E 000°14'0 0.0
2019-Jun-11 18:59N 49°26' E 000°14'0 0.0
2019-Jun-11 18:29N 49°26' E 000°14'0 0.0
2019-Jun-11 17:59N 49°26' E 000°14'0 0.0
2019-Jun-11 17:29N 49°26' E 000°14'0 0.0
2019-Jun-11 16:59N 49°26' E 000°14'0 0.0
2019-Jun-11 16:29N 49°26' E 000°14'0 0.0
2019-Jun-11 15:59N 49°26' E 000°14'0 0.0
2019-Jun-11 15:29N 49°26' E 000°14'0 0.0
2019-Jun-11 14:59N 49°26' E 000°14'0 0.0
2019-Jun-11 14:29N 49°26' E 000°14'0 0.0
2019-Jun-11 13:59N 49°26' E 000°14'0 0.0
2019-Jun-11 13:29N 49°26' E 000°14'0 0.0
2019-Jun-11 12:59N 49°26' E 000°14'0 0.0
2019-Jun-11 12:29N 49°26' E 000°14'0 0.0
2019-Jun-11 11:59N 49°26' E 000°14'0 0.0
2019-Jun-11 11:29N 49°26' E 000°14'0 0.0
2019-Jun-11 10:59N 49°26' E 000°14'0 0.0
2019-Jun-11 10:29N 49°26' E 000°14'0 0.0
2019-Jun-11 09:59N 49°26' E 000°14'0 0.0
2019-Jun-11 09:29N 49°26' E 000°14'0 0.0
2019-Jun-11 08:59N 49°26' E 000°14'0 0.0
2019-Jun-11 08:29N 49°26' E 000°14'0 0.0
2019-Jun-11 07:59N 49°26' E 000°14'0 0.0
2019-Jun-11 07:29N 49°26' E 000°14'0 0.0
2019-Jun-11 06:59N 49°26' E 000°14'0 0.0
2019-Jun-11 06:29N 49°26' E 000°14'0 0.0
2019-Jun-11 05:59N 49°26' E 000°14'0 0.0
2019-Jun-11 05:29N 49°26' E 000°14'0 0.0
2019-Jun-11 05:00N 49°26' E 000°14'2 4.7
2019-Jun-11 04:30N 49°26' E 000°11'815.7
2019-Jun-11 04:00N 49°28' W 000°01'510.8
2019-Jun-11 03:31N 49°30' W 000°09'5 9.3
2019-Jun-11 03:01N 49°34' W 000°13'5 9.5
2019-Jun-11 02:31N 49°38' W 000°16'4 8.9
2019-Jun-11 02:01N 49°42' W 000°20'4 8.8
2019-Jun-11 01:31N 49°46' W 000°22'4 8.2
2019-Jun-11 01:00N 49°50' W 000°22'4 8.3
2019-Jun-11 00:30N 49°54' W 000°21'4 8.5
2019-Jun-11 00:00N 49°58' W 000°21'4 8.5
2019-Jun-10 23:30N 50°03' W 000°21'10 9.3
2019-Jun-10 22:29N 50°12' W 000°20'913.6
2019-Jun-10 21:47N 50°21' W 000°15'1213.6
2019-Jun-10 20:55N 50°30' W 000°03'3010.3
2019-Jun-10 18:04N 50°40' E 000°41'110.6
2019-Jun-10 18:00N 50°40' E 000°41'510.6
2019-Jun-10 17:30N 50°44' E 000°48'510.5
2019-Jun-10 17:00N 50°47' E 000°55'610.4
2019-Jun-10 16:28N 50°50' E 001°02'510.4
2019-Jun-10 16:00N 50°53' E 001°08'510.5
2019-Jun-10 15:30N 50°57' E 001°14'510.4
2019-Jun-10 15:00N 51°00' E 001°20'5 9.8
2019-Jun-10 14:30N 51°04' E 001°26'5 9.6
2019-Jun-10 14:00N 51°06' E 001°32'510.3
2019-Jun-10 13:30N 51°10' E 001°38'5 9.2
2019-Jun-10 13:01N 51°14' E 001°39'510.6
2019-Jun-10 12:31N 51°19' E 001°36'510.5
2019-Jun-10 12:01N 51°24' E 001°32'5 9.3
2019-Jun-10 11:31N 51°27' E 001°27'611.6
2019-Jun-10 11:01N 51°29' E 001°18'714.1
2019-Jun-10 10:30N 51°29' E 001°06'714.7
2019-Jun-10 10:00N 51°29' E 000°55'815.4
2019-Jun-10 09:30N 51°30' E 000°42'815.4
2019-Jun-10 09:01N 51°30' E 000°30'511.0
2019-Jun-10 08:31N 51°27' E 000°23'4 8.9
2019-Jun-10 08:01N 51°28' E 000°16'611.5
2019-Jun-10 07:30N 51°31' E 000°08'5 9.6
2019-Jun-10 07:00N 51°30' E 000°00'2 4.0
2019-Jun-10 06:30N 51°30' W 000°03'1 2.5
2019-Jun-10 06:01N 51°30' W 000°05'0 0.0
2019-Jun-10 05:31N 51°30' W 000°05'0 0.0
2019-Jun-10 04:58N 51°30' W 000°05'0 0.0
2019-Jun-10 04:28N 51°30' W 000°05'0 0.0
2019-Jun-10 03:58N 51°30' W 000°05'0 0.0
2019-Jun-10 03:28N 51°30' W 000°05'0 0.0
2019-Jun-10 02:58N 51°30' W 000°05'0 0.0
2019-Jun-10 02:26N 51°30' W 000°05'0 0.0
2019-Jun-10 01:50N 51°30' W 000°05'0 0.0
2019-Jun-10 01:20N 51°30' W 000°05'0 0.0
2019-Jun-10 00:56N 51°30' W 000°05'0 0.0
2019-Jun-10 00:26N 51°30' W 000°05'0 0.0
2019-Jun-09 23:50N 51°30' W 000°05'0 0.0
2019-Jun-09 23:20N 51°30' W 000°05'0 0.0
2019-Jun-09 22:56N 51°30' W 000°05'0 0.0
2019-Jun-09 22:14N 51°30' W 000°05'0 0.0
2019-Jun-09 21:58N 51°30' W 000°05'0 0.0
2019-Jun-09 21:26N 51°30' W 000°05'0 0.0
2019-Jun-09 20:46N 51°30' W 000°05'0 0.0
2019-Jun-09 20:22N 51°30' W 000°05'0 0.0
2019-Jun-09 19:56N 51°30' W 000°05'0 0.0
2019-Jun-09 19:26N 51°30' W 000°05'0 0.0
2019-Jun-09 18:58N 51°30' W 000°05'0 0.0
2019-Jun-09 18:29N 51°30' W 000°05'0 0.0
2019-Jun-09 17:58N 51°30' W 000°05'0 0.0
2019-Jun-09 17:28N 51°30' W 000°05'0 0.0
2019-Jun-09 16:58N 51°30' W 000°05'0 0.0
2019-Jun-09 16:14N 51°30' W 000°05'0 0.0
2019-Jun-09 15:23N 51°30' W 000°05'0 0.0
2019-Jun-09 14:52N 51°30' W 000°05'0 0.0
2019-Jun-09 14:28N 51°30' W 000°05'0 0.0
2019-Jun-09 13:59N 51°30' W 000°05'0 0.0
2019-Jun-09 13:20N 51°30' W 000°05'0 0.0
2019-Jun-09 12:40N 51°30' W 000°05'0 0.0
2019-Jun-09 12:29N 51°30' W 000°05'0 0.0
2019-Jun-09 11:49N 51°30' W 000°05'0 0.0
2019-Jun-09 11:25N 51°30' W 000°05'0 0.0
2019-Jun-09 10:59N 51°30' W 000°05'0 0.0
2019-Jun-09 10:25N 51°30' W 000°05'0 0.0
2019-Jun-09 09:56N 51°30' W 000°05'0 0.0
2019-Jun-09 09:30N 51°30' W 000°05'0 0.0
2019-Jun-09 09:00N 51°30' W 000°05'0 0.0
2019-Jun-09 08:30N 51°30' W 000°05'0 0.0
2019-Jun-09 08:00N 51°30' W 000°05'0 0.0
2019-Jun-09 07:27N 51°30' W 000°05'0 0.0
2019-Jun-09 06:58N 51°30' W 000°05'1 3.0
2019-Jun-09 06:30N 51°30' W 000°03'2 4.5
2019-Jun-09 06:00N 51°30' E 000°01'5 9.2
2019-Jun-09 05:30N 51°31' E 000°08'611.5
2019-Jun-09 05:01N 51°28' E 000°16'8 7.9
2019-Jun-09 04:01N 51°30' E 000°28'5 9.6
2019-Jun-09 03:30N 51°30' E 000°36'713.2
2019-Jun-09 03:01N 51°29' E 000°46'714.5
2019-Jun-09 02:31N 51°29' E 000°58'714.8
2019-Jun-09 02:01N 51°29' E 001°10'714.7
2019-Jun-09 01:31N 51°29' E 001°22'713.2
2019-Jun-09 01:00N 51°27' E 001°32'4 7.1
2019-Jun-09 00:30N 51°29' E 001°37'510.5
2019-Jun-09 00:00N 51°33' E 001°42'510.7
2019-Jun-08 23:30N 51°38' E 001°46'510.7
2019-Jun-08 23:00N 51°43' E 001°45'611.3
2019-Jun-08 22:30N 51°49' E 001°45'611.3
2019-Jun-08 22:00N 51°55' E 001°44'510.9
2019-Jun-08 21:30N 51°60' E 001°48'510.7
2019-Jun-08 21:00N 52°04' E 001°53'611.1
2019-Jun-08 20:30N 52°09' E 001°58'611.3
2019-Jun-08 20:00N 52°14' E 002°01'611.6
2019-Jun-08 19:30N 52°19' E 002°04'611.6
2019-Jun-08 19:00N 52°25' E 002°06'611.6
2019-Jun-08 18:30N 52°31' E 002°09'611.5
2019-Jun-08 18:00N 52°36' E 002°11'611.4
2019-Jun-08 17:30N 52°42' E 002°13'611.1
2019-Jun-08 17:00N 52°47' E 002°10'611.3
2019-Jun-08 16:30N 52°51' E 002°04'611.2
2019-Jun-08 16:00N 52°55' E 001°57'611.5
2019-Jun-08 15:30N 52°58' E 001°49'611.4
2019-Jun-08 15:00N 53°01' E 001°41'1311.6
2019-Jun-08 13:54N 53°13' E 001°32'511.9
2019-Jun-08 13:30N 53°17' E 001°28'1211.9
2019-Jun-08 12:31N 53°28' E 001°19'011.2
2019-Jun-08 12:30N 53°28' E 001°19'612.0
2019-Jun-08 12:00N 53°33' E 001°16'611.8
2019-Jun-08 11:30N 53°37' E 001°09'611.8
2019-Jun-08 11:00N 53°42' E 001°02'611.9
2019-Jun-08 10:31N 53°46' E 000°54'1511.8
2019-Jun-08 09:13N 53°56' E 000°35'311.7
2019-Jun-08 09:00N 53°58' E 000°33'611.9
2019-Jun-08 08:30N 54°03' E 000°27'612.0
2019-Jun-08 08:00N 54°08' E 000°21'612.2
2019-Jun-08 07:30N 54°13' E 000°15'612.1
2019-Jun-08 07:00N 54°18' E 000°10'6612.1
2019-Jun-08 01:32N 55°13' W 000°55'112.1
2019-Jun-08 01:28N 55°13' W 000°56'612.2
2019-Jun-08 01:00N 55°18' W 001°01'2112.3
2019-Jun-07 23:15N 55°36' W 001°23'312.2
2019-Jun-07 23:00N 55°38' W 001°26'612.2
2019-Jun-07 22:30N 55°43' W 001°32'612.1
2019-Jun-07 22:00N 55°47' W 001°40'611.7
2019-Jun-07 21:30N 55°51' W 001°47'611.9
2019-Jun-07 21:00N 55°55' W 001°55'612.3
2019-Jun-07 20:30N 55°59' W 002°03'1612.2
2019-Jun-07 19:12N 56°07' W 002°29'511.8
2019-Jun-07 18:48N 56°08' W 002°37'412.5
2019-Jun-07 18:30N 56°08' W 002°44'612.2
2019-Jun-07 18:00N 56°05' W 002°53'612.2
2019-Jun-07 17:30N 56°02' W 003°03'5 9.9
2019-Jun-07 17:00N 56°00' W 003°11'1 2.4
2019-Jun-07 16:30N 55°59' W 003°11'0 0.8
2019-Jun-07 15:58N 55°59' W 003°11'0 0.0
2019-Jun-07 15:28N 55°59' W 003°11'0 0.0
2019-Jun-07 14:58N 55°59' W 003°11'0 0.0
2019-Jun-07 14:28N 55°59' W 003°11'0 0.0
2019-Jun-07 13:58N 55°59' W 003°11'0 0.0
2019-Jun-07 13:28N 55°59' W 003°11'0 0.0
2019-Jun-07 12:58N 55°59' W 003°11'0 0.0
2019-Jun-07 12:28N 55°59' W 003°11'0 0.0
2019-Jun-07 11:58N 55°59' W 003°11'0 0.0
2019-Jun-07 11:25N 55°59' W 003°11'0 0.0
2019-Jun-07 10:58N 55°59' W 003°11'0 0.0
2019-Jun-07 10:28N 55°59' W 003°11'0 0.0
2019-Jun-07 09:58N 55°59' W 003°11'0 0.0
2019-Jun-07 09:28N 55°59' W 003°11'0 0.0
2019-Jun-07 08:58N 55°59' W 003°11'0 0.0
2019-Jun-07 08:28N 55°59' W 003°11'0 0.0
2019-Jun-07 07:58N 55°59' W 003°11'0 0.0
2019-Jun-07 07:28N 55°59' W 003°11'0 0.0
2019-Jun-07 06:58N 55°59' W 003°11'0 0.0
2019-Jun-07 06:28N 55°59' W 003°11'0 0.0
2019-Jun-07 06:00N 55°59' W 003°11'0 0.0
2019-Jun-07 05:30N 55°59' W 003°11'0 0.0
2019-Jun-07 05:00N 55°59' W 003°11'0 0.0
2019-Jun-07 04:30N 55°59' W 003°11'0 0.0
2019-Jun-07 04:00N 55°59' W 003°11'0 0.8
2019-Jun-07 03:30N 55°59' W 003°11'1 2.0
2019-Jun-07 03:00N 56°00' W 003°12'2 4.0
2019-Jun-07 02:30N 56°01' W 003°08'510.9
2019-Jun-07 02:00N 56°03' W 002°60'612.2
2019-Jun-07 01:30N 56°06' W 002°50'612.7
2019-Jun-07 01:00N 56°08' W 002°39'713.3
2019-Jun-07 00:30N 56°10' W 002°28'714.4
2019-Jun-07 00:00N 56°15' W 002°19'714.4
2019-Jun-06 23:30N 56°20' W 002°11'714.3
2019-Jun-06 23:00N 56°27' W 002°05'714.2
2019-Jun-06 22:30N 56°33' W 001°57'2314.4
2019-Jun-06 20:54N 56°51' W 001°31'1814.5
2019-Jun-06 19:38N 57°05' W 001°11'214.1
2019-Jun-06 19:28N 57°07' W 001°08'814.4
2019-Jun-06 18:56N 57°13' W 000°60'16015.1
2019-Jun-06 08:19N 59°21' E 002°05'515.5
2019-Jun-06 07:59N 59°25' E 002°11'815.5
2019-Jun-06 07:29N 59°31' E 002°21'715.3
2019-Jun-06 07:00N 59°37' E 002°30'815.6
2019-Jun-06 06:31N 59°43' E 002°40'815.5
2019-Jun-06 06:00N 59°49' E 002°50'815.5
2019-Jun-06 05:30N 59°55' E 002°59'815.4
2019-Jun-06 05:00N 60°00' E 003°10'815.4
2019-Jun-06 04:30N 60°07' E 003°20'815.5
2019-Jun-06 04:00N 60°12' E 003°30'815.6
2019-Jun-06 03:30N 60°18' E 003°40'815.7
2019-Jun-06 03:00N 60°24' E 003°50'815.4
2019-Jun-06 02:29N 60°31' E 003°60'715.5
2019-Jun-06 02:00N 60°36' E 004°09'815.9
2019-Jun-06 01:30N 60°42' E 004°20'816.1
2019-Jun-06 00:59N 60°49' E 004°31'713.9
2019-Jun-06 00:29N 60°54' E 004°40'  

Dump ship's entire track history